sensor_id;sensor_type;location;lat;lon;timestamp;temperature;humidity
52965;DHT22;42923;53.220;6.528;2022-07-04T00:00:21;11.50;99.90
52965;DHT22;42923;53.220;6.528;2022-07-04T00:02:47;11.30;99.90
52965;DHT22;42923;53.220;6.528;2022-07-04T00:05:14;11.30;99.90
52965;DHT22;42923;53.220;6.528;2022-07-04T00:07:42;11.30;99.90
52965;DHT22;42923;53.220;6.528;2022-07-04T00:10:10;11.30;99.90
52965;DHT22;42923;53.220;6.528;2022-07-04T00:12:36;11.30;99.90
52965;DHT22;42923;53.220;6.528;2022-07-04T00:15:04;11.40;99.90
52965;DHT22;42923;53.220;6.528;2022-07-04T00:17:30;11.30;99.90
52965;DHT22;42923;53.220;6.528;2022-07-04T00:19:56;11.30;99.90
52965;DHT22;42923;53.220;6.528;2022-07-04T00:22:22;11.40;99.90
52965;DHT22;42923;53.220;6.528;2022-07-04T00:24:48;11.60;99.90
52965;DHT22;42923;53.220;6.528;2022-07-04T00:27:14;11.40;99.90
52965;DHT22;42923;53.220;6.528;2022-07-04T00:29:40;11.40;99.90
52965;DHT22;42923;53.220;6.528;2022-07-04T00:32:06;11.60;99.90
52965;DHT22;42923;53.220;6.528;2022-07-04T00:34:31;11.40;99.90
52965;DHT22;42923;53.220;6.528;2022-07-04T00:36:57;11.70;99.90
52965;DHT22;42923;53.220;6.528;2022-07-04T00:39:23;11.60;99.90
52965;DHT22;42923;53.220;6.528;2022-07-04T00:41:49;11.50;99.90
52965;DHT22;42923;53.220;6.528;2022-07-04T00:44:15;11.50;99.90
52965;DHT22;42923;53.220;6.528;2022-07-04T00:46:45;11.50;99.90
52965;DHT22;42923;53.220;6.528;2022-07-04T00:49:13;11.40;99.90
52965;DHT22;42923;53.220;6.528;2022-07-04T00:51:40;11.40;99.90
52965;DHT22;42923;53.220;6.528;2022-07-04T00:54:08;11.40;99.90
52965;DHT22;42923;53.220;6.528;2022-07-04T00:56:38;11.40;99.90
52965;DHT22;42923;53.220;6.528;2022-07-04T00:59:05;11.40;99.90
52965;DHT22;42923;53.220;6.528;2022-07-04T01:01:31;11.50;99.90
52965;DHT22;42923;53.220;6.528;2022-07-04T01:03:57;11.30;99.90
52965;DHT22;42923;53.220;6.528;2022-07-04T01:06:23;11.30;99.90
52965;DHT22;42923;53.220;6.528;2022-07-04T01:08:49;11.30;99.90
52965;DHT22;42923;53.220;6.528;2022-07-04T01:11:15;11.30;99.90
52965;DHT22;42923;53.220;6.528;2022-07-04T01:13:42;11.20;99.90
52965;DHT22;42923;53.220;6.528;2022-07-04T01:16:09;11.50;99.90
52965;DHT22;42923;53.220;6.528;2022-07-04T01:18:36;11.20;99.90
52965;DHT22;42923;53.220;6.528;2022-07-04T01:21:02;11.30;99.90
52965;DHT22;42923;53.220;6.528;2022-07-04T01:23:28;11.20;99.90
52965;DHT22;42923;53.220;6.528;2022-07-04T01:25:54;11.20;99.90
52965;DHT22;42923;53.220;6.528;2022-07-04T01:28:22;11.20;99.90
52965;DHT22;42923;53.220;6.528;2022-07-04T01:30:47;11.50;99.90
52965;DHT22;42923;53.220;6.528;2022-07-04T01:33:13;11.20;99.90
52965;DHT22;42923;53.220;6.528;2022-07-04T01:35:40;11.20;99.90
52965;DHT22;42923;53.220;6.528;2022-07-04T01:38:06;11.20;99.90
52965;DHT22;42923;53.220;6.528;2022-07-04T01:40:32;11.40;99.90
52965;DHT22;42923;53.220;6.528;2022-07-04T01:42:58;11.40;99.90
52965;DHT22;42923;53.220;6.528;2022-07-04T01:45:24;11.40;99.90
52965;DHT22;42923;53.220;6.528;2022-07-04T01:47:50;11.10;99.90
52965;DHT22;42923;53.220;6.528;2022-07-04T01:50:15;11.10;99.90
52965;DHT22;42923;53.220;6.528;2022-07-04T01:52:42;11.20;99.90
52965;DHT22;42923;53.220;6.528;2022-07-04T01:55:11;11.00;99.90
52965;DHT22;42923;53.220;6.528;2022-07-04T01:57:38;11.00;99.90
52965;DHT22;42923;53.220;6.528;2022-07-04T02:00:06;11.10;99.90
52965;DHT22;42923;53.220;6.528;2022-07-04T02:02:50;11.10;99.90
52965;DHT22;42923;53.220;6.528;2022-07-04T02:05:16;11.30;99.90
52965;DHT22;42923;53.220;6.528;2022-07-04T02:07:42;11.00;99.90
52965;DHT22;42923;53.220;6.528;2022-07-04T02:10:08;11.00;99.90
52965;DHT22;42923;53.220;6.528;2022-07-04T02:12:34;11.10;99.90
52965;DHT22;42923;53.220;6.528;2022-07-04T02:15:18;11.00;99.90
52965;DHT22;42923;53.220;6.528;2022-07-04T02:17:44;11.00;99.90
52965;DHT22;42923;53.220;6.528;2022-07-04T02:20:10;10.90;99.90
52965;DHT22;42923;53.220;6.528;2022-07-04T02:22:36;10.90;99.90
52965;DHT22;42923;53.220;6.528;2022-07-04T02:25:02;10.90;99.90
52965;DHT22;42923;53.220;6.528;2022-07-04T02:27:27;10.90;99.90
52965;DHT22;42923;53.220;6.528;2022-07-04T02:29:53;10.80;99.90
52965;DHT22;42923;53.220;6.528;2022-07-04T02:32:19;10.80;99.90
52965;DHT22;42923;53.220;6.528;2022-07-04T02:34:44;10.80;99.90
52965;DHT22;42923;53.220;6.528;2022-07-04T02:37:10;10.80;99.90
52965;DHT22;42923;53.220;6.528;2022-07-04T02:39:36;11.00;99.90
52965;DHT22;42923;53.220;6.528;2022-07-04T02:42:02;10.80;99.90
52965;DHT22;42923;53.220;6.528;2022-07-04T02:44:28;10.80;99.90
52965;DHT22;42923;53.220;6.528;2022-07-04T02:46:53;10.80;99.90
52965;DHT22;42923;53.220;6.528;2022-07-04T02:49:19;10.80;99.90
52965;DHT22;42923;53.220;6.528;2022-07-04T02:51:45;10.80;99.90
52965;DHT22;42923;53.220;6.528;2022-07-04T02:54:11;10.70;99.90
52965;DHT22;42923;53.220;6.528;2022-07-04T02:56:36;10.70;99.90
52965;DHT22;42923;53.220;6.528;2022-07-04T02:59:02;10.90;99.90
52965;DHT22;42923;53.220;6.528;2022-07-04T03:01:28;10.70;99.90
52965;DHT22;42923;53.220;6.528;2022-07-04T03:03:54;10.70;99.90
52965;DHT22;42923;53.220;6.528;2022-07-04T03:06:20;10.70;99.90
52965;DHT22;42923;53.220;6.528;2022-07-04T03:08:45;11.00;99.90
52965;DHT22;42923;53.220;6.528;2022-07-04T03:11:11;10.70;99.90
52965;DHT22;42923;53.220;6.528;2022-07-04T03:13:39;10.60;99.90
52965;DHT22;42923;53.220;6.528;2022-07-04T03:16:05;10.70;99.90
52965;DHT22;42923;53.220;6.528;2022-07-04T03:18:31;10.60;99.90
52965;DHT22;42923;53.220;6.528;2022-07-04T03:20:57;10.70;99.90
52965;DHT22;42923;53.220;6.528;2022-07-04T03:23:22;10.70;99.90
52965;DHT22;42923;53.220;6.528;2022-07-04T03:25:48;10.70;99.90
52965;DHT22;42923;53.220;6.528;2022-07-04T03:28:14;10.70;99.90
52965;DHT22;42923;53.220;6.528;2022-07-04T03:30:40;10.60;99.90
52965;DHT22;42923;53.220;6.528;2022-07-04T03:33:06;10.70;99.90
52965;DHT22;42923;53.220;6.528;2022-07-04T03:35:31;10.70;99.90
52965;DHT22;42923;53.220;6.528;2022-07-04T03:37:57;10.70;99.90
52965;DHT22;42923;53.220;6.528;2022-07-04T03:40:23;10.80;99.90
52965;DHT22;42923;53.220;6.528;2022-07-04T03:42:49;10.80;99.90
52965;DHT22;42923;53.220;6.528;2022-07-04T03:45:15;10.80;99.90
52965;DHT22;42923;53.220;6.528;2022-07-04T03:47:41;10.90;99.90
52965;DHT22;42923;53.220;6.528;2022-07-04T03:50:07;11.00;99.90
52965;DHT22;42923;53.220;6.528;2022-07-04T03:52:33;11.00;99.90
52965;DHT22;42923;53.220;6.528;2022-07-04T03:54:59;11.10;99.90
52965;DHT22;42923;53.220;6.528;2022-07-04T03:57:25;11.20;99.90
52965;DHT22;42923;53.220;6.528;2022-07-04T03:59:51;11.20;99.90
52965;DHT22;42923;53.220;6.528;2022-07-04T04:02:16;11.50;99.90
52965;DHT22;42923;53.220;6.528;2022-07-04T04:04:42;11.30;99.90
52965;DHT22;42923;53.220;6.528;2022-07-04T04:07:26;11.40;99.90
52965;DHT22;42923;53.220;6.528;2022-07-04T04:09:53;11.40;99.90
52965;DHT22;42923;53.220;6.528;2022-07-04T04:12:18;11.40;99.90
52965;DHT22;42923;53.220;6.528;2022-07-04T04:14:44;11.60;99.90
52965;DHT22;42923;53.220;6.528;2022-07-04T04:17:10;11.40;99.90
52965;DHT22;42923;53.220;6.528;2022-07-04T04:19:36;11.50;99.90
52965;DHT22;42923;53.220;6.528;2022-07-04T04:22:01;11.60;99.90
52965;DHT22;42923;53.220;6.528;2022-07-04T04:24:27;11.60;99.90
52965;DHT22;42923;53.220;6.528;2022-07-04T04:26:53;11.70;99.90
52965;DHT22;42923;53.220;6.528;2022-07-04T04:29:19;11.80;99.90
52965;DHT22;42923;53.220;6.528;2022-07-04T04:31:44;11.90;99.90
52965;DHT22;42923;53.220;6.528;2022-07-04T04:34:11;12.00;99.90
52965;DHT22;42923;53.220;6.528;2022-07-04T04:36:36;12.10;99.90
52965;DHT22;42923;53.220;6.528;2022-07-04T04:39:02;12.10;99.90
52965;DHT22;42923;53.220;6.528;2022-07-04T04:41:28;12.20;99.90
52965;DHT22;42923;53.220;6.528;2022-07-04T04:43:54;12.30;99.90
52965;DHT22;42923;53.220;6.528;2022-07-04T04:46:20;12.40;99.90
52965;DHT22;42923;53.220;6.528;2022-07-04T04:48:46;12.40;99.90
52965;DHT22;42923;53.220;6.528;2022-07-04T04:51:12;12.50;99.90
52965;DHT22;42923;53.220;6.528;2022-07-04T04:53:37;12.50;99.90
52965;DHT22;42923;53.220;6.528;2022-07-04T04:56:03;12.50;99.90
52965;DHT22;42923;53.220;6.528;2022-07-04T04:58:29;12.60;99.90
52965;DHT22;42923;53.220;6.528;2022-07-04T05:00:55;12.60;99.90
52965;DHT22;42923;53.220;6.528;2022-07-04T05:03:21;12.70;99.90
52965;DHT22;42923;53.220;6.528;2022-07-04T05:05:46;12.70;99.90
52965;DHT22;42923;53.220;6.528;2022-07-04T05:08:12;12.70;99.90
52965;DHT22;42923;53.220;6.528;2022-07-04T05:10:39;12.80;99.90
52965;DHT22;42923;53.220;6.528;2022-07-04T05:13:05;12.90;99.90
52965;DHT22;42923;53.220;6.528;2022-07-04T05:15:31;13.00;99.90
52965;DHT22;42923;53.220;6.528;2022-07-04T05:17:56;13.10;99.90
52965;DHT22;42923;53.220;6.528;2022-07-04T05:20:22;13.30;99.90
52965;DHT22;42923;53.220;6.528;2022-07-04T05:22:48;13.40;99.90
52965;DHT22;42923;53.220;6.528;2022-07-04T05:25:14;13.70;99.90
52965;DHT22;42923;53.220;6.528;2022-07-04T05:27:39;13.50;99.90
52965;DHT22;42923;53.220;6.528;2022-07-04T05:30:06;13.50;99.90
52965;DHT22;42923;53.220;6.528;2022-07-04T05:32:32;13.60;99.90
52965;DHT22;42923;53.220;6.528;2022-07-04T05:34:58;13.70;99.90
52965;DHT22;42923;53.220;6.528;2022-07-04T05:37:24;13.80;99.90
52965;DHT22;42923;53.220;6.528;2022-07-04T05:39:50;13.90;99.90
52965;DHT22;42923;53.220;6.528;2022-07-04T05:42:16;13.90;99.90
52965;DHT22;42923;53.220;6.528;2022-07-04T05:44:42;14.00;99.90
52965;DHT22;42923;53.220;6.528;2022-07-04T05:47:08;14.00;99.90
52965;DHT22;42923;53.220;6.528;2022-07-04T05:49:33;14.10;99.90
52965;DHT22;42923;53.220;6.528;2022-07-04T05:51:59;14.20;99.90
52965;DHT22;42923;53.220;6.528;2022-07-04T05:54:25;14.30;99.90
52965;DHT22;42923;53.220;6.528;2022-07-04T05:56:51;14.40;99.90
52965;DHT22;42923;53.220;6.528;2022-07-04T05:59:16;14.80;99.90
52965;DHT22;42923;53.220;6.528;2022-07-04T06:01:42;14.70;99.90
52965;DHT22;42923;53.220;6.528;2022-07-04T06:04:08;14.80;99.90
52965;DHT22;42923;53.220;6.528;2022-07-04T06:06:34;14.90;99.90
52965;DHT22;42923;53.220;6.528;2022-07-04T06:09:00;15.00;99.90
52965;DHT22;42923;53.220;6.528;2022-07-04T06:11:26;15.10;99.90
52965;DHT22;42923;53.220;6.528;2022-07-04T06:13:52;15.20;99.90
52965;DHT22;42923;53.220;6.528;2022-07-04T06:16:18;15.30;99.90
52965;DHT22;42923;53.220;6.528;2022-07-04T06:18:44;15.40;99.90
52965;DHT22;42923;53.220;6.528;2022-07-04T06:21:09;15.40;99.90
52965;DHT22;42923;53.220;6.528;2022-07-04T06:23:35;15.60;99.90
52965;DHT22;42923;53.220;6.528;2022-07-04T06:26:02;15.70;99.90
52965;DHT22;42923;53.220;6.528;2022-07-04T06:28:28;15.70;99.90
52965;DHT22;42923;53.220;6.528;2022-07-04T06:30:55;15.80;99.90
52965;DHT22;42923;53.220;6.528;2022-07-04T06:33:20;15.90;99.90
52965;DHT22;42923;53.220;6.528;2022-07-04T06:35:46;16.00;99.90
52965;DHT22;42923;53.220;6.528;2022-07-04T06:38:22;16.10;99.90
52965;DHT22;42923;53.220;6.528;2022-07-04T06:40:50;16.30;99.90
52965;DHT22;42923;53.220;6.528;2022-07-04T06:43:16;16.30;99.90
52965;DHT22;42923;53.220;6.528;2022-07-04T06:45:42;16.40;99.90
52965;DHT22;42923;53.220;6.528;2022-07-04T06:48:08;16.50;99.90
52965;DHT22;42923;53.220;6.528;2022-07-04T06:50:34;16.60;99.90
52965;DHT22;42923;53.220;6.528;2022-07-04T06:53:01;16.80;99.90
52965;DHT22;42923;53.220;6.528;2022-07-04T06:55:28;16.90;99.90
52965;DHT22;42923;53.220;6.528;2022-07-04T06:57:53;16.90;99.90
52965;DHT22;42923;53.220;6.528;2022-07-04T07:00:19;17.10;99.90
52965;DHT22;42923;53.220;6.528;2022-07-04T07:02:45;17.20;99.90
52965;DHT22;42923;53.220;6.528;2022-07-04T07:05:10;17.30;99.90
52965;DHT22;42923;53.220;6.528;2022-07-04T07:07:36;17.30;99.90
52965;DHT22;42923;53.220;6.528;2022-07-04T07:10:02;17.40;99.90
52965;DHT22;42923;53.220;6.528;2022-07-04T07:12:29;17.60;99.90
52965;DHT22;42923;53.220;6.528;2022-07-04T07:14:55;17.80;99.90
52965;DHT22;42923;53.220;6.528;2022-07-04T07:17:21;18.00;99.90
52965;DHT22;42923;53.220;6.528;2022-07-04T07:19:47;18.30;99.90
52965;DHT22;42923;53.220;6.528;2022-07-04T07:22:13;18.70;99.90
52965;DHT22;42923;53.220;6.528;2022-07-04T07:24:40;19.00;99.90
52965;DHT22;42923;53.220;6.528;2022-07-04T07:27:06;19.30;99.90
52965;DHT22;42923;53.220;6.528;2022-07-04T07:29:32;19.40;99.90
52965;DHT22;42923;53.220;6.528;2022-07-04T07:31:58;19.30;99.90
52965;DHT22;42923;53.220;6.528;2022-07-04T07:34:24;19.30;99.90
52965;DHT22;42923;53.220;6.528;2022-07-04T07:36:50;19.20;99.90
52965;DHT22;42923;53.220;6.528;2022-07-04T07:39:16;19.20;99.90
52965;DHT22;42923;53.220;6.528;2022-07-04T07:41:42;19.20;99.90
52965;DHT22;42923;53.220;6.528;2022-07-04T07:44:08;19.40;99.90
52965;DHT22;42923;53.220;6.528;2022-07-04T07:46:34;19.70;99.90
52965;DHT22;42923;53.220;6.528;2022-07-04T07:49:00;20.10;99.90
52965;DHT22;42923;53.220;6.528;2022-07-04T07:51:25;20.30;99.90
52965;DHT22;42923;53.220;6.528;2022-07-04T07:53:51;20.40;99.90
52965;DHT22;42923;53.220;6.528;2022-07-04T07:56:17;20.20;99.90
52965;DHT22;42923;53.220;6.528;2022-07-04T07:58:43;20.10;99.90
52965;DHT22;42923;53.220;6.528;2022-07-04T08:01:09;19.80;99.90
52965;DHT22;42923;53.220;6.528;2022-07-04T08:03:34;19.60;99.90
52965;DHT22;42923;53.220;6.528;2022-07-04T08:06:19;19.30;99.90
52965;DHT22;42923;53.220;6.528;2022-07-04T08:08:44;19.10;99.90
52965;DHT22;42923;53.220;6.528;2022-07-04T08:11:11;18.90;99.90
52965;DHT22;42923;53.220;6.528;2022-07-04T08:13:38;18.70;99.90
52965;DHT22;42923;53.220;6.528;2022-07-04T08:16:04;18.60;99.90
52965;DHT22;42923;53.220;6.528;2022-07-04T08:18:31;18.60;99.90
52965;DHT22;42923;53.220;6.528;2022-07-04T08:20:57;18.50;99.90
52965;DHT22;42923;53.220;6.528;2022-07-04T08:23:23;18.50;99.90
52965;DHT22;42923;53.220;6.528;2022-07-04T08:25:49;18.50;99.90
52965;DHT22;42923;53.220;6.528;2022-07-04T08:28:15;18.50;99.90
52965;DHT22;42923;53.220;6.528;2022-07-04T08:30:40;18.70;99.90
52965;DHT22;42923;53.220;6.528;2022-07-04T08:33:06;18.90;99.90
52965;DHT22;42923;53.220;6.528;2022-07-04T08:35:32;19.20;99.90
52965;DHT22;42923;53.220;6.528;2022-07-04T08:37:59;19.40;99.90
52965;DHT22;42923;53.220;6.528;2022-07-04T08:40:26;19.60;99.90
52965;DHT22;42923;53.220;6.528;2022-07-04T08:42:52;19.50;99.90
52965;DHT22;42923;53.220;6.528;2022-07-04T08:45:26;19.50;99.90
52965;DHT22;42923;53.220;6.528;2022-07-04T08:47:55;19.40;99.90
52965;DHT22;42923;53.220;6.528;2022-07-04T08:50:42;19.50;99.90
52965;DHT22;42923;53.220;6.528;2022-07-04T08:53:13;19.60;99.90
52965;DHT22;42923;53.220;6.528;2022-07-04T08:55:40;19.60;99.90
52965;DHT22;42923;53.220;6.528;2022-07-04T08:58:25;19.70;99.90
52965;DHT22;42923;53.220;6.528;2022-07-04T09:00:59;19.70;99.90
52965;DHT22;42923;53.220;6.528;2022-07-04T09:03:27;19.70;99.90
52965;DHT22;42923;53.220;6.528;2022-07-04T09:05:53;19.80;99.90
52965;DHT22;42923;53.220;6.528;2022-07-04T09:08:19;19.90;99.90
52965;DHT22;42923;53.220;6.528;2022-07-04T09:10:46;20.10;99.90
52965;DHT22;42923;53.220;6.528;2022-07-04T09:13:12;20.20;99.90
52965;DHT22;42923;53.220;6.528;2022-07-04T09:15:46;20.40;99.90
52965;DHT22;42923;53.220;6.528;2022-07-04T09:18:41;20.50;99.90
52965;DHT22;42923;53.220;6.528;2022-07-04T09:21:08;20.70;99.90
52965;DHT22;42923;53.220;6.528;2022-07-04T09:23:38;20.90;99.90
52965;DHT22;42923;53.220;6.528;2022-07-04T09:26:17;21.20;99.90
52965;DHT22;42923;53.220;6.528;2022-07-04T09:28:50;21.50;99.90
52965;DHT22;42923;53.220;6.528;2022-07-04T09:31:22;21.90;99.90
52965;DHT22;42923;53.220;6.528;2022-07-04T09:34:05;22.20;99.90
52965;DHT22;42923;53.220;6.528;2022-07-04T09:36:33;22.30;99.90
52965;DHT22;42923;53.220;6.528;2022-07-04T09:39:17;22.30;99.90
52965;DHT22;42923;53.220;6.528;2022-07-04T09:41:58;22.20;99.90
52965;DHT22;42923;53.220;6.528;2022-07-04T09:44:29;22.20;99.90
52965;DHT22;42923;53.220;6.528;2022-07-04T09:47:21;22.30;99.90
52965;DHT22;42923;53.220;6.528;2022-07-04T09:50:08;22.50;99.90
52965;DHT22;42923;53.220;6.528;2022-07-04T09:55:14;22.90;99.90
52965;DHT22;42923;53.220;6.528;2022-07-04T09:57:45;22.90;99.90
52965;DHT22;42923;53.220;6.528;2022-07-04T10:00:27;22.90;99.90
52965;DHT22;42923;53.220;6.528;2022-07-04T10:02:54;23.10;99.90
52965;DHT22;42923;53.220;6.528;2022-07-04T10:05:23;23.50;99.90
52965;DHT22;42923;53.220;6.528;2022-07-04T10:07:49;23.80;99.90
52965;DHT22;42923;53.220;6.528;2022-07-04T10:10:26;23.80;99.90
52965;DHT22;42923;53.220;6.528;2022-07-04T10:13:01;23.60;99.90
52965;DHT22;42923;53.220;6.528;2022-07-04T10:15:27;23.40;99.90
52965;DHT22;42923;53.220;6.528;2022-07-04T10:17:53;23.40;99.90
52965;DHT22;42923;53.220;6.528;2022-07-04T10:20:19;23.50;99.90
52965;DHT22;42923;53.220;6.528;2022-07-04T10:22:45;23.60;99.90
52965;DHT22;42923;53.220;6.528;2022-07-04T10:25:11;23.80;99.90
52965;DHT22;42923;53.220;6.528;2022-07-04T10:27:38;24.00;99.90
52965;DHT22;42923;53.220;6.528;2022-07-04T10:30:06;24.30;99.90
52965;DHT22;42923;53.220;6.528;2022-07-04T10:32:33;24.50;99.90
52965;DHT22;42923;53.220;6.528;2022-07-04T10:35:00;24.60;99.90
52965;DHT22;42923;53.220;6.528;2022-07-04T10:38:04;24.60;99.90
52965;DHT22;42923;53.220;6.528;2022-07-04T10:40:56;24.70;97.70
52965;DHT22;42923;53.220;6.528;2022-07-04T10:46:21;24.70;97.30
52965;DHT22;42923;53.220;6.528;2022-07-04T10:51:14;24.90;99.90
52965;DHT22;42923;53.220;6.528;2022-07-04T10:54:02;25.00;89.50
52965;DHT22;42923;53.220;6.528;2022-07-04T10:56:35;25.20;89.70
52965;DHT22;42923;53.220;6.528;2022-07-04T10:59:13;25.40;92.60
52965;DHT22;42923;53.220;6.528;2022-07-04T11:01:45;25.50;90.90
52965;DHT22;42923;53.220;6.528;2022-07-04T11:04:10;25.50;90.10
52965;DHT22;42923;53.220;6.528;2022-07-04T11:09:19;25.80;90.60
52965;DHT22;42923;53.220;6.528;2022-07-04T11:14:38;25.10;88.00
52965;DHT22;42923;53.220;6.528;2022-07-04T11:17:19;24.70;90.30
52965;DHT22;42923;53.220;6.528;2022-07-04T11:19:45;24.70;95.30
52965;DHT22;42923;53.220;6.528;2022-07-04T11:22:11;24.80;92.40
52965;DHT22;42923;53.220;6.528;2022-07-04T11:24:40;25.00;89.70
52965;DHT22;42923;53.220;6.528;2022-07-04T11:27:09;25.30;92.00
52965;DHT22;42923;53.220;6.528;2022-07-04T11:29:35;25.50;90.50
52965;DHT22;42923;53.220;6.528;2022-07-04T11:32:01;25.80;91.10
52965;DHT22;42923;53.220;6.528;2022-07-04T11:34:33;26.20;83.80
52965;DHT22;42923;53.220;6.528;2022-07-04T11:37:02;26.30;80.40
52965;DHT22;42923;53.220;6.528;2022-07-04T11:39:29;26.20;81.80
52965;DHT22;42923;53.220;6.528;2022-07-04T11:41:55;26.30;80.50
52965;DHT22;42923;53.220;6.528;2022-07-04T11:44:41;26.50;81.80
52965;DHT22;42923;53.220;6.528;2022-07-04T11:49:58;26.80;76.50
52965;DHT22;42923;53.220;6.528;2022-07-04T11:55:03;26.70;72.20
52965;DHT22;42923;53.220;6.528;2022-07-04T11:57:34;26.90;75.70
52965;DHT22;42923;53.220;6.528;2022-07-04T12:00:09;27.00;72.40
52965;DHT22;42923;53.220;6.528;2022-07-04T12:02:35;27.10;70.50
52965;DHT22;42923;53.220;6.528;2022-07-04T12:05:03;27.10;71.20
52965;DHT22;42923;53.220;6.528;2022-07-04T12:07:31;27.10;70.40
52965;DHT22;42923;53.220;6.528;2022-07-04T12:10:14;27.00;70.10
52965;DHT22;42923;53.220;6.528;2022-07-04T12:13:00;26.90;67.20
52965;DHT22;42923;53.220;6.528;2022-07-04T12:15:41;27.10;69.20
52965;DHT22;42923;53.220;6.528;2022-07-04T12:20:43;27.60;69.40
52965;DHT22;42923;53.220;6.528;2022-07-04T12:23:09;27.70;67.40
52965;DHT22;42923;53.220;6.528;2022-07-04T12:25:37;27.80;66.90
52965;DHT22;42923;53.220;6.528;2022-07-04T12:28:08;27.70;67.30
52965;DHT22;42923;53.220;6.528;2022-07-04T12:30:36;27.10;66.20
52965;DHT22;42923;53.220;6.528;2022-07-04T12:33:09;26.60;66.60
52965;DHT22;42923;53.220;6.528;2022-07-04T12:35:42;26.20;66.00
52965;DHT22;42923;53.220;6.528;2022-07-04T12:38:20;25.80;67.90
52965;DHT22;42923;53.220;6.528;2022-07-04T12:40:54;25.90;68.90
52965;DHT22;42923;53.220;6.528;2022-07-04T12:44:19;26.00;69.10
52965;DHT22;42923;53.220;6.528;2022-07-04T12:46:27;26.30;70.20
52965;DHT22;42923;53.220;6.528;2022-07-04T12:48:55;26.50;69.50
52965;DHT22;42923;53.220;6.528;2022-07-04T12:51:24;26.30;69.90
52965;DHT22;42923;53.220;6.528;2022-07-04T12:53:52;26.40;72.60
52965;DHT22;42923;53.220;6.528;2022-07-04T12:56:31;26.30;70.40
52965;DHT22;42923;53.220;6.528;2022-07-04T12:58:59;26.20;68.20
52965;DHT22;42923;53.220;6.528;2022-07-04T13:01:25;26.10;67.90
52965;DHT22;42923;53.220;6.528;2022-07-04T13:03:51;25.90;67.40
52965;DHT22;42923;53.220;6.528;2022-07-04T13:06:17;25.60;68.10
52965;DHT22;42923;53.220;6.528;2022-07-04T13:08:43;25.70;69.30
52965;DHT22;42923;53.220;6.528;2022-07-04T13:11:08;26.10;69.80
52965;DHT22;42923;53.220;6.528;2022-07-04T13:13:52;26.30;69.10
52965;DHT22;42923;53.220;6.528;2022-07-04T13:16:18;26.60;67.70
52965;DHT22;42923;53.220;6.528;2022-07-04T13:18:44;26.70;66.20
52965;DHT22;42923;53.220;6.528;2022-07-04T13:21:10;26.70;66.90
52965;DHT22;42923;53.220;6.528;2022-07-04T13:23:35;27.00;67.10
52965;DHT22;42923;53.220;6.528;2022-07-04T13:26:03;27.30;67.60
52965;DHT22;42923;53.220;6.528;2022-07-04T13:28:28;27.50;66.90
52965;DHT22;42923;53.220;6.528;2022-07-04T13:30:54;27.60;65.10
52965;DHT22;42923;53.220;6.528;2022-07-04T13:33:20;27.30;64.30
52965;DHT22;42923;53.220;6.528;2022-07-04T13:35:46;27.20;64.70
52965;DHT22;42923;53.220;6.528;2022-07-04T13:38:11;26.70;64.40
52965;DHT22;42923;53.220;6.528;2022-07-04T13:40:42;26.30;65.00
52965;DHT22;42923;53.220;6.528;2022-07-04T13:43:09;26.00;66.20
52965;DHT22;42923;53.220;6.528;2022-07-04T13:45:41;26.30;66.50
52965;DHT22;42923;53.220;6.528;2022-07-04T13:48:09;26.60;66.30
52965;DHT22;42923;53.220;6.528;2022-07-04T13:50:36;27.10;66.30
52965;DHT22;42923;53.220;6.528;2022-07-04T13:53:08;27.60;65.30
52965;DHT22;42923;53.220;6.528;2022-07-04T13:55:34;28.00;63.10
52965;DHT22;42923;53.220;6.528;2022-07-04T13:58:04;28.10;63.10
52965;DHT22;42923;53.220;6.528;2022-07-04T14:00:31;28.00;63.80
52965;DHT22;42923;53.220;6.528;2022-07-04T14:02:56;27.40;63.60
52965;DHT22;42923;53.220;6.528;2022-07-04T14:05:22;26.60;63.00
52965;DHT22;42923;53.220;6.528;2022-07-04T14:07:50;26.40;64.00
52965;DHT22;42923;53.220;6.528;2022-07-04T14:10:16;26.30;63.30
52965;DHT22;42923;53.220;6.528;2022-07-04T14:12:42;26.70;63.90
52965;DHT22;42923;53.220;6.528;2022-07-04T14:15:08;26.90;62.70
52965;DHT22;42923;53.220;6.528;2022-07-04T14:17:35;26.80;63.80
52965;DHT22;42923;53.220;6.528;2022-07-04T14:20:06;27.00;65.40
52965;DHT22;42923;53.220;6.528;2022-07-04T14:22:36;27.50;64.30
52965;DHT22;42923;53.220;6.528;2022-07-04T14:25:03;27.90;64.10
52965;DHT22;42923;53.220;6.528;2022-07-04T14:27:29;28.30;62.80
52965;DHT22;42923;53.220;6.528;2022-07-04T14:29:55;28.60;63.20
52965;DHT22;42923;53.220;6.528;2022-07-04T14:32:20;28.70;61.00
52965;DHT22;42923;53.220;6.528;2022-07-04T14:34:46;28.90;60.90
52965;DHT22;42923;53.220;6.528;2022-07-04T14:37:12;28.70;59.30
52965;DHT22;42923;53.220;6.528;2022-07-04T14:39:38;28.70;58.90
52965;DHT22;42923;53.220;6.528;2022-07-04T14:42:04;28.70;58.90
52965;DHT22;42923;53.220;6.528;2022-07-04T14:44:29;28.70;60.00
52965;DHT22;42923;53.220;6.528;2022-07-04T14:46:55;28.10;59.00
52965;DHT22;42923;53.220;6.528;2022-07-04T14:49:21;27.90;60.90
52965;DHT22;42923;53.220;6.528;2022-07-04T14:51:47;28.00;61.10
52965;DHT22;42923;53.220;6.528;2022-07-04T14:54:13;28.00;60.40
52965;DHT22;42923;53.220;6.528;2022-07-04T14:56:39;28.00;61.40
52965;DHT22;42923;53.220;6.528;2022-07-04T14:59:05;28.20;60.20
52965;DHT22;42923;53.220;6.528;2022-07-04T15:01:31;28.40;60.40
52965;DHT22;42923;53.220;6.528;2022-07-04T15:03:57;28.00;58.60
52965;DHT22;42923;53.220;6.528;2022-07-04T15:06:23;27.80;59.50
52965;DHT22;42923;53.220;6.528;2022-07-04T15:08:49;27.80;59.90
52965;DHT22;42923;53.220;6.528;2022-07-04T15:11:15;27.90;59.20
52965;DHT22;42923;53.220;6.528;2022-07-04T15:13:41;27.30;58.70
52965;DHT22;42923;53.220;6.528;2022-07-04T15:16:07;26.70;59.70
52965;DHT22;42923;53.220;6.528;2022-07-04T15:18:34;26.60;61.50
52965;DHT22;42923;53.220;6.528;2022-07-04T15:20:59;26.70;62.20
52965;DHT22;42923;53.220;6.528;2022-07-04T15:23:44;27.20;61.70
52965;DHT22;42923;53.220;6.528;2022-07-04T15:26:28;27.30;59.90
52965;DHT22;42923;53.220;6.528;2022-07-04T15:28:54;27.60;59.90
52965;DHT22;42923;53.220;6.528;2022-07-04T15:31:20;27.80;60.50
52965;DHT22;42923;53.220;6.528;2022-07-04T15:33:46;27.90;59.40
52965;DHT22;42923;53.220;6.528;2022-07-04T15:36:11;28.10;59.30
52965;DHT22;42923;53.220;6.528;2022-07-04T15:38:37;28.50;58.40
52965;DHT22;42923;53.220;6.528;2022-07-04T15:41:03;28.60;58.30
52965;DHT22;42923;53.220;6.528;2022-07-04T15:43:29;28.70;59.10
52965;DHT22;42923;53.220;6.528;2022-07-04T15:45:56;28.90;59.30
52965;DHT22;42923;53.220;6.528;2022-07-04T15:48:22;28.80;59.50
52965;DHT22;42923;53.220;6.528;2022-07-04T15:50:47;28.90;58.80
52965;DHT22;42923;53.220;6.528;2022-07-04T15:53:14;28.70;58.20
52965;DHT22;42923;53.220;6.528;2022-07-04T15:55:40;28.30;58.20